Time;durP1;ratioP1;P1;durP2;ratioP2;P2;SDS_P1;SDS_P2;PMS_P1;PMS_P2;Temp;Humidity;BMP_temperature;BMP_pressure;BME280_temperature;BME280_humidity;BME280_pressure;Samples;Min_cycle;Max_cycle;Signal;HPM_P1;HPM_P2
2022/07/30 00:01:00;;;;;;;4.90;2.70;;;18.20;98.00;;;;;;5012954;28;20456;-70
2022/07/30 00:03:28;;;;;;;3.80;2.70;;;18.20;98.00;;;;;;5013067;28;20950;-70
2022/07/30 00:05:57;;;;;;;3.40;2.60;;;18.20;98.00;;;;;;5013183;28;21099;-69
2022/07/30 00:08:25;;;;;;;3.73;2.43;;;18.10;98.00;;;;;;5012914;28;21004;-69
2022/07/30 00:10:53;;;;;;;3.57;2.80;;;18.30;98.00;;;;;;5012951;28;20459;-69
2022/07/30 00:13:20;;;;;;;7.07;3.10;;;18.20;98.00;;;;;;5013014;28;20847;-70
2022/07/30 00:15:50;;;;;;;4.30;2.50;;;18.30;98.00;;;;;;5012984;28;20456;-70
2022/07/30 00:18:17;;;;;;;3.87;2.83;;;18.20;98.00;;;;;;5013199;28;20823;-70
2022/07/30 00:20:45;;;;;;;5.33;2.90;;;18.00;98.00;;;;;;5012938;28;20954;-70
2022/07/30 00:23:12;;;;;;;3.93;2.83;;;18.00;98.00;;;;;;5012935;28;21166;-70
2022/07/30 00:25:39;;;;;;;3.50;2.30;;;18.00;98.00;;;;;;5011749;28;20831;-69
2022/07/30 00:28:06;;;;;;;2.93;2.30;;;18.00;98.00;;;;;;5012754;28;20494;-70
2022/07/30 00:30:34;;;;;;;3.07;2.47;;;17.90;98.00;;;;;;5012771;28;20460;-70
2022/07/30 00:33:03;;;;;;;3.17;2.37;;;17.90;98.00;;;;;;5012975;28;20468;-70
2022/07/30 00:35:30;;;;;;;4.50;2.83;;;17.80;98.00;;;;;;5012721;28;20460;-70
2022/07/30 00:37:59;;;;;;;4.37;2.77;;;17.80;98.00;;;;;;5011547;28;20455;-70
2022/07/30 00:40:26;;;;;;;4.23;3.10;;;17.90;98.00;;;;;;5011661;28;20465;-70
2022/07/30 00:42:53;;;;;;;7.80;4.10;;;17.80;98.00;;;;;;5012589;28;20473;-70
2022/07/30 00:45:21;;;;;;;4.07;2.70;;;18.00;98.00;;;;;;5012925;28;20455;-70
2022/07/30 00:47:50;;;;;;;4.30;3.23;;;18.00;98.00;;;;;;5012326;28;20488;-70
2022/07/30 00:50:20;;;;;;;5.07;3.03;;;17.90;98.00;;;;;;5012648;28;20798;-70
2022/07/30 00:52:47;;;;;;;3.70;3.00;;;17.80;98.00;;;;;;5012276;28;20460;-70
2022/07/30 00:55:15;;;;;;;3.10;2.63;;;17.80;98.00;;;;;;5012437;28;20474;-70
2022/07/30 00:57:43;;;;;;;5.10;3.37;;;17.90;98.00;;;;;;5011978;28;20466;-70
2022/07/30 01:00:13;;;;;;;2.50;2.33;;;18.00;98.00;;;;;;5012340;28;20458;-69
2022/07/30 01:02:41;;;;;;;3.77;2.70;;;18.30;98.00;;;;;;5010896;28;20486;-69
2022/07/30 01:05:10;;;;;;;6.53;3.47;;;18.30;98.00;;;;;;5012171;28;20470;-70
2022/07/30 01:07:39;;;;;;;3.30;2.23;;;18.40;98.00;;;;;;5011913;28;20476;-70
2022/07/30 01:10:08;;;;;;;4.27;2.80;;;18.40;98.00;;;;;;5012101;28;20463;-69
2022/07/30 01:12:36;;;;;;;3.80;2.60;;;18.30;98.00;;;;;;5012124;28;20467;-69
2022/07/30 01:15:05;;;;;;;4.53;3.33;;;18.30;98.00;;;;;;5012066;28;20454;-70
2022/07/30 01:17:34;;;;;;;5.57;2.90;;;18.20;98.00;;;;;;5012067;28;20451;-70
2022/07/30 01:20:05;;;;;;;4.27;3.07;;;18.00;98.00;;;;;;5012039;28;20474;-70
2022/07/30 01:22:45;;;;;;;3.50;2.57;;;17.90;98.00;;;;;;5012151;28;20518;-70
2022/07/30 01:25:19;;;;;;;5.27;2.97;;;17.90;98.00;;;;;;5012214;28;20475;-70
2022/07/30 01:28:09;;;;;;;3.77;2.50;;;17.90;98.00;;;;;;5011972;28;20487;-69
2022/07/30 01:30:40;;;;;;;3.63;2.73;;;17.80;98.00;;;;;;5012092;28;20451;-70
2022/07/30 01:33:11;;;;;;;4.40;3.00;;;17.70;98.00;;;;;;5016175;28;20495;-69
2022/07/30 01:35:40;;;;;;;4.53;2.50;;;17.50;98.00;;;;;;5016139;28;20518;-70
2022/07/30 01:38:08;;;;;;;3.20;2.70;;;17.60;98.00;;;;;;5016076;28;20459;-70
2022/07/30 01:40:38;;;;;;;4.33;2.67;;;17.50;98.00;;;;;;5016234;28;20455;-70
2022/07/30 01:43:08;;;;;;;3.50;2.50;;;17.60;98.00;;;;;;5014705;28;20482;-70
2022/07/30 01:45:37;;;;;;;4.10;2.70;;;17.60;98.00;;;;;;5016083;28;20466;-70
2022/07/30 01:48:08;;;;;;;3.17;2.60;;;17.60;98.00;;;;;;5014428;28;20487;-69
2022/07/30 01:50:37;;;;;;;3.60;2.57;;;17.60;98.00;;;;;;5015707;28;20463;-70
2022/07/30 01:53:05;;;;;;;5.70;2.60;;;17.80;98.00;;;;;;5015615;28;20493;-69
2022/07/30 01:55:36;;;;;;;5.40;2.97;;;17.60;98.00;;;;;;5015591;28;20510;-69
2022/07/30 01:58:06;;;;;;;4.23;2.77;;;17.70;98.00;;;;;;5015264;28;21183;-70
2022/07/30 02:00:37;;;;;;;4.20;3.00;;;17.80;98.00;;;;;;5015520;28;20670;-70
2022/07/30 02:03:07;;;;;;;3.43;2.63;;;17.70;98.00;;;;;;5015431;28;20464;-70
2022/07/30 02:05:36;;;;;;;3.80;3.00;;;17.60;98.00;;;;;;5015374;28;20467;-70
2022/07/30 02:08:07;;;;;;;5.40;3.17;;;17.60;98.00;;;;;;5015150;28;20479;-70
2022/07/30 02:10:40;;;;;;;3.73;2.70;;;17.80;98.00;;;;;;5015194;28;20470;-70
2022/07/30 02:13:11;;;;;;;3.10;2.60;;;17.80;98.00;;;;;;5015264;28;20462;-69
2022/07/30 02:15:43;;;;;;;4.77;2.90;;;17.70;98.00;;;;;;5015104;28;20459;-70
2022/07/30 02:18:18;;;;;;;5.00;2.67;;;17.60;98.00;;;;;;5014982;28;20840;-70
2022/07/30 02:20:48;;;;;;;4.00;2.97;;;17.70;98.00;;;;;;5015139;28;20454;-70
2022/07/30 02:23:17;;;;;;;4.50;2.73;;;17.70;98.00;;;;;;5015088;28;20460;-69
2022/07/30 02:25:50;;;;;;;2.93;2.27;;;17.80;98.00;;;;;;5015099;28;20463;-69
2022/07/30 02:28:21;;;;;;;3.23;2.40;;;17.90;98.00;;;;;;5014969;28;20878;-70
2022/07/30 02:30:52;;;;;;;3.27;2.50;;;17.90;98.00;;;;;;5015055;28;20455;-70
2022/07/30 02:33:23;;;;;;;3.00;2.40;;;17.80;98.00;;;;;;5015055;28;20471;-69
2022/07/30 02:35:51;;;;;;;3.77;2.30;;;17.90;98.00;;;;;;5015067;28;20481;-70
2022/07/30 02:38:20;;;;;;;3.27;2.50;;;17.90;98.00;;;;;;5014941;28;20854;-69
2022/07/30 02:40:49;;;;;;;4.73;2.87;;;17.80;98.00;;;;;;5014826;28;20456;-69
2022/07/30 02:43:19;;;;;;;4.33;2.50;;;18.00;98.00;;;;;;5013248;28;20993;-69
2022/07/30 02:45:48;;;;;;;3.17;2.60;;;17.90;98.00;;;;;;5013943;28;20540;-70
2022/07/30 02:48:16;;;;;;;3.60;3.03;;;17.80;98.00;;;;;;5014090;28;20484;-70
2022/07/30 02:50:46;;;;;;;3.90;2.70;;;17.60;98.00;;;;;;5014137;28;20513;-70
2022/07/30 02:53:14;;;;;;;3.77;2.90;;;17.50;98.00;;;;;;5013992;28;20468;-69
2022/07/30 02:55:43;;;;;;;3.50;2.67;;;17.40;98.00;;;;;;5013828;28;20499;-69
2022/07/30 02:58:12;;;;;;;3.97;2.80;;;17.40;98.00;;;;;;5013793;28;20478;-69
2022/07/30 03:00:42;;;;;;;2.63;2.40;;;17.40;98.00;;;;;;5012673;28;20486;-69
2022/07/30 03:03:12;;;;;;;3.50;2.40;;;17.30;98.00;;;;;;5013631;28;20471;-69
2022/07/30 03:05:41;;;;;;;3.27;2.50;;;17.30;98.00;;;;;;5013105;28;20860;-70
2022/07/30 03:08:09;;;;;;;3.13;2.40;;;17.20;98.00;;;;;;5013074;28;20514;-70
2022/07/30 03:10:37;;;;;;;3.00;2.50;;;17.10;98.00;;;;;;5014070;28;20946;-69
2022/07/30 03:13:06;;;;;;;3.90;2.53;;;17.00;98.00;;;;;;5013964;28;20452;-70
2022/07/30 03:15:36;;;;;;;3.07;2.30;;;17.00;98.00;;;;;;5014225;28;20487;-70
2022/07/30 03:18:07;;;;;;;7.83;3.30;;;17.00;98.00;;;;;;5013871;28;20540;-69
2022/07/30 03:20:35;;;;;;;3.60;2.30;;;17.00;98.00;;;;;;5014068;28;20482;-70
2022/07/30 03:23:04;;;;;;;3.07;2.23;;;17.10;98.00;;;;;;5013746;28;20468;-70
2022/07/30 03:25:32;;;;;;;4.30;3.03;;;17.30;98.00;;;;;;5013808;28;20468;-69
2022/07/30 03:28:02;;;;;;;2.17;1.90;;;17.20;98.00;;;;;;5013779;28;20494;-70
2022/07/30 03:30:30;;;;;;;5.03;2.73;;;17.20;98.00;;;;;;5013982;28;20471;-69
2022/07/30 03:32:58;;;;;;;5.83;3.10;;;17.10;98.00;;;;;;5013794;28;20459;-69
2022/07/30 03:35:27;;;;;;;5.37;2.90;;;16.90;98.00;;;;;;5013450;28;20468;-69
2022/07/30 03:37:57;;;;;;;3.37;2.30;;;16.70;98.00;;;;;;5013673;28;20455;-70
2022/07/30 03:40:25;;;;;;;4.73;2.53;;;16.70;98.00;;;;;;5013683;28;20471;-70
2022/07/30 03:42:52;;;;;;;3.70;2.47;;;16.70;98.00;;;;;;5013625;28;20463;-70
2022/07/30 03:45:21;;;;;;;2.77;2.20;;;16.60;98.00;;;;;;5014129;28;20451;-70
2022/07/30 03:47:48;;;;;;;3.37;2.60;;;16.60;98.00;;;;;;5013712;28;20482;-69
2022/07/30 03:50:15;;;;;;;2.90;2.17;;;16.70;98.00;;;;;;5013638;28;20832;-70
2022/07/30 03:52:44;;;;;;;3.30;2.37;;;16.60;98.00;;;;;;5013131;28;20489;-70
2022/07/30 03:55:12;;;;;;;4.33;2.57;;;16.70;98.00;;;;;;5013304;28;20463;-69
2022/07/30 03:57:40;;;;;;;3.77;2.37;;;16.70;98.00;;;;;;5011933;28;20463;-70
2022/07/30 04:00:13;;;;;;;2.97;2.47;;;16.70;98.00;;;;;;5013376;28;20962;-69
2022/07/30 04:02:44;;;;;;;3.90;2.83;;;16.70;98.00;;;;;;5013148;28;20494;-70
2022/07/30 04:05:12;;;;;;;7.07;2.13;;;16.60;98.00;;;;;;5013153;28;21013;-70
2022/07/30 04:07:39;;;;;;;2.50;2.10;;;16.60;98.00;;;;;;5013128;28;20490;-70
2022/07/30 04:10:09;;;;;;;3.10;2.43;;;16.50;98.00;;;;;;5012853;28;20495;-70
2022/07/30 04:12:39;;;;;;;4.70;3.10;;;16.50;98.00;;;;;;5013096;28;20866;-70
2022/07/30 04:15:07;;;;;;;4.30;2.73;;;16.40;98.00;;;;;;5013052;28;20482;-70
2022/07/30 04:17:55;;;;;;;3.77;2.20;;;16.50;98.00;;;;;;5012910;28;20486;-70
2022/07/30 04:20:26;;;;;;;3.63;2.70;;;16.60;98.00;;;;;;5013043;28;20559;-70
2022/07/30 04:22:53;;;;;;;3.50;2.20;;;16.60;98.00;;;;;;5013004;28;20463;-69
2022/07/30 04:25:23;;;;;;;3.40;2.40;;;16.60;98.00;;;;;;5012978;28;20927;-70
2022/07/30 04:27:50;;;;;;;3.43;2.70;;;16.50;98.00;;;;;;5011442;28;20455;-70
2022/07/30 04:30:18;;;;;;;4.03;2.43;;;16.50;98.00;;;;;;5012903;28;20462;-70
2022/07/30 04:32:47;;;;;;;3.77;2.67;;;16.50;98.00;;;;;;5012770;28;20479;-69
2022/07/30 04:35:15;;;;;;;3.53;2.57;;;16.70;98.00;;;;;;5012919;28;20463;-69
2022/07/30 04:37:42;;;;;;;4.17;2.60;;;16.70;98.00;;;;;;5012680;28;20459;-69
2022/07/30 04:40:10;;;;;;;2.33;2.13;;;16.70;98.00;;;;;;5012582;28;20460;-69
2022/07/30 04:42:39;;;;;;;3.33;2.20;;;16.70;98.00;;;;;;5012872;28;20467;-69
2022/07/30 04:45:08;;;;;;;3.80;2.30;;;16.80;98.00;;;;;;5012301;28;20474;-69
2022/07/30 04:47:35;;;;;;;3.50;2.13;;;16.70;98.00;;;;;;5011533;28;20804;-70
2022/07/30 04:50:04;;;;;;;3.57;2.33;;;16.80;98.00;;;;;;5012323;28;20494;-69
2022/07/30 04:52:31;;;;;;;4.17;2.13;;;16.70;98.00;;;;;;5012596;28;20486;-70
2022/07/30 04:55:02;;;;;;;2.07;1.77;;;16.70;98.00;;;;;;5011296;28;20471;-69
2022/07/30 04:57:33;;;;;;;4.10;2.50;;;16.70;98.00;;;;;;5012227;28;20455;-70
2022/07/30 05:00:05;;;;;;;2.60;2.00;;;16.80;98.00;;;;;;5012540;28;20448;-69
2022/07/30 05:02:35;;;;;;;4.67;3.20;;;16.70;98.00;;;;;;5012162;28;20835;-70
2022/07/30 05:05:03;;;;;;;3.30;2.40;;;16.70;98.00;;;;;;5012367;28;20462;-69
2022/07/30 05:07:31;;;;;;;3.80;2.83;;;16.60;98.00;;;;;;5011474;28;20966;-70
2022/07/30 05:10:01;;;;;;;2.73;2.10;;;16.60;98.00;;;;;;5012261;28;20583;-69
2022/07/30 05:12:33;;;;;;;3.40;2.37;;;16.60;98.00;;;;;;5011117;28;20466;-70
2022/07/30 05:15:00;;;;;;;2.37;2.20;;;16.60;98.00;;;;;;5012229;28;20448;-70
2022/07/30 05:17:29;;;;;;;10.00;2.63;;;16.70;98.00;;;;;;5010760;28;20546;-70
2022/07/30 05:19:59;;;;;;;4.20;2.67;;;16.90;98.00;;;;;;5012115;28;20472;-69
2022/07/30 05:22:28;;;;;;;4.63;3.10;;;17.00;98.00;;;;;;5012116;28;20467;-70
2022/07/30 05:24:56;;;;;;;4.13;2.90;;;17.10;98.00;;;;;;5012123;28;20553;-69
2022/07/30 05:27:23;;;;;;;4.37;2.67;;;17.10;98.00;;;;;;5012076;28;20474;-69
2022/07/30 05:29:50;;;;;;;4.30;2.30;;;17.10;98.00;;;;;;5012025;28;20813;-70
2022/07/30 05:32:17;;;;;;;2.60;2.17;;;17.10;98.00;;;;;;5012049;28;20456;-70
2022/07/30 05:34:46;;;;;;;4.73;2.83;;;17.20;98.00;;;;;;5010834;28;20471;-69
2022/07/30 05:37:13;;;;;;;4.13;2.77;;;17.30;98.00;;;;;;5012090;28;20466;-69
2022/07/30 05:39:40;;;;;;;3.97;2.77;;;17.40;98.00;;;;;;5012021;28;20459;-69
2022/07/30 05:42:07;;;;;;;4.07;2.80;;;17.40;98.00;;;;;;5011938;28;20471;-69
2022/07/30 05:44:34;;;;;;;3.53;2.70;;;17.50;98.00;;;;;;5012079;28;20460;-69
2022/07/30 05:47:02;;;;;;;3.17;2.63;;;17.60;98.00;;;;;;5010551;28;20456;-70
2022/07/30 05:49:29;;;;;;;4.40;2.90;;;17.60;98.00;;;;;;5011919;28;20494;-69
2022/07/30 05:51:57;;;;;;;3.80;2.70;;;17.60;98.00;;;;;;5011692;28;20459;-69
2022/07/30 05:54:25;;;;;;;4.87;2.80;;;17.60;98.00;;;;;;5011818;28;20448;-70
2022/07/30 05:56:52;;;;;;;2.70;2.23;;;17.70;98.00;;;;;;5011635;28;20456;-69
2022/07/30 05:59:20;;;;;;;3.37;2.50;;;17.70;98.00;;;;;;5011767;28;20455;-70
2022/07/30 06:01:47;;;;;;;3.17;2.57;;;17.70;98.00;;;;;;5011671;28;20459;-69
2022/07/30 06:04:14;;;;;;;4.30;2.80;;;17.80;98.00;;;;;;5010435;28;20451;-69
2022/07/30 06:06:42;;;;;;;3.93;2.93;;;17.90;98.00;;;;;;5011653;28;20455;-70
2022/07/30 06:09:10;;;;;;;3.53;2.90;;;18.10;98.00;;;;;;5011663;28;20487;-69
2022/07/30 06:11:37;;;;;;;3.73;2.83;;;18.10;98.00;;;;;;5011717;28;20487;-69
2022/07/30 06:14:05;;;;;;;3.50;2.60;;;18.30;98.00;;;;;;5011361;28;20454;-69
2022/07/30 06:16:35;;;;;;;5.50;3.17;;;18.40;98.00;;;;;;5010446;28;20447;-69
2022/07/30 06:19:03;;;;;;;5.43;3.00;;;18.60;98.00;;;;;;5013577;28;20474;-72
2022/07/30 06:21:30;;;;;;;4.90;3.07;;;18.70;98.00;;;;;;5015290;28;20946;-72
2022/07/30 06:23:57;;;;;;;4.77;2.70;;;18.80;98.00;;;;;;5015188;28;20464;-72
2022/07/30 06:26:26;;;;;;;4.70;2.90;;;18.90;98.00;;;;;;5014190;28;20836;-72
2022/07/30 06:28:53;;;;;;;6.50;3.40;;;19.10;98.00;;;;;;5014731;28;21020;-72
2022/07/30 06:31:21;;;;;;;5.57;3.60;;;19.20;98.00;;;;;;5015216;28;20455;-72
2022/07/30 06:33:48;;;;;;;4.97;3.27;;;19.20;98.00;;;;;;5015114;28;20460;-72
2022/07/30 06:36:15;;;;;;;7.17;3.50;;;19.20;98.00;;;;;;5014932;28;20470;-71
2022/07/30 06:38:44;;;;;;;4.10;2.80;;;19.30;98.00;;;;;;5015046;28;20839;-71
2022/07/30 06:41:11;;;;;;;3.33;2.50;;;19.30;98.00;;;;;;5014633;28;20464;-67
2022/07/30 06:43:40;;;;;;;3.00;2.40;;;19.40;98.00;;;;;;5014566;28;20506;-67
2022/07/30 06:46:07;;;;;;;4.27;2.57;;;19.70;98.00;;;;;;5015118;28;20590;-67
2022/07/30 06:48:34;;;;;;;4.80;2.70;;;20.00;98.00;;;;;;5014265;28;20448;-66
2022/07/30 06:51:01;;;;;;;3.87;2.77;;;20.40;98.00;;;;;;5014775;28;20482;-67
2022/07/30 06:53:28;;;;;;;4.20;2.50;;;20.60;98.00;;;;;;5014539;28;20459;-67
2022/07/30 06:55:58;;;;;;;4.10;2.97;;;21.00;98.00;;;;;;5014560;28;20463;-67
2022/07/30 06:58:25;;;;;;;6.03;3.03;;;21.20;98.00;;;;;;5012975;28;21220;-67
2022/07/30 07:00:55;;;;;;;4.57;3.00;;;21.40;98.00;;;;;;5014119;28;20942;-67
2022/07/30 07:03:22;;;;;;;3.50;2.67;;;21.60;98.00;;;;;;5014238;28;20474;-67
2022/07/30 07:05:51;;;;;;;6.00;3.40;;;21.70;98.00;;;;;;5014137;28;21156;-67
2022/07/30 07:08:18;;;;;;;3.67;2.90;;;21.80;98.00;;;;;;5014257;28;20451;-67
2022/07/30 07:10:45;;;;;;;6.40;3.57;;;22.00;98.00;;;;;;5014120;28;20869;-66
2022/07/30 07:13:13;;;;;;;9.37;4.00;;;21.90;98.00;;;;;;5013889;28;20482;-67
2022/07/30 07:15:41;;;;;;;5.23;3.43;;;21.80;98.00;;;;;;5014077;28;20467;-66
2022/07/30 07:18:11;;;;;;;5.80;3.30;;;21.90;98.00;;;;;;5013804;28;20467;-67
2022/07/30 07:20:38;;;;;;;5.93;3.17;;;22.00;98.00;;;;;;5013879;28;20514;-67
2022/07/30 07:23:05;;;;;;;4.63;3.40;;;21.90;98.00;;;;;;5011840;28;20470;-67
2022/07/30 07:25:34;;;;;;;3.97;3.30;;;21.90;98.00;;;;;;5011213;28;20483;-67
2022/07/30 07:28:01;;;;;;;10.37;3.43;;;21.90;98.00;;;;;;5011151;28;20459;-67
2022/07/30 07:30:28;;;;;;;4.30;3.23;;;21.90;98.00;;;;;;5010573;28;20502;-68
2022/07/30 07:32:55;;;;;;;5.00;3.43;;;22.00;98.00;;;;;;5011141;28;20471;-67
2022/07/30 07:35:24;;;;;;;4.27;3.07;;;22.00;98.00;;;;;;5011754;28;20475;-67
2022/07/30 07:37:51;;;;;;;5.40;3.30;;;22.10;98.00;;;;;;5013742;28;20966;-69
2022/07/30 07:40:18;;;;;;;5.63;3.40;;;22.10;98.00;;;;;;5013903;28;21012;-69
2022/07/30 07:42:45;;;;;;;5.60;3.03;;;22.20;98.00;;;;;;5013743;28;20528;-69
2022/07/30 07:45:12;;;;;;;4.50;3.13;;;22.10;98.00;;;;;;5013784;28;20459;-70
2022/07/30 07:47:49;;;;;;;5.30;3.03;;;22.10;98.00;;;;;;5013511;28;20898;-69
2022/07/30 07:50:18;;;;;;;4.13;2.90;;;22.10;98.00;;;;;;5012233;28;20490;-69
2022/07/30 07:52:47;;;;;;;9.57;3.20;;;22.10;98.00;;;;;;5013457;28;20463;-70
2022/07/30 07:55:14;;;;;;;5.57;3.63;;;22.10;98.00;;;;;;5012041;28;20455;-70
2022/07/30 07:57:42;;;;;;;5.67;3.30;;;22.10;98.00;;;;;;5013162;28;20481;-69
2022/07/30 08:00:13;;;;;;;5.17;3.43;;;22.30;98.00;;;;;;5013194;28;21000;-69
2022/07/30 08:02:41;;;;;;;5.40;3.40;;;22.30;98.00;;;;;;5013128;28;20459;-69
2022/07/30 08:05:09;;;;;;;3.87;3.17;;;22.40;98.00;;;;;;5013292;28;20470;-69
2022/07/30 08:07:36;;;;;;;4.70;3.20;;;22.50;98.00;;;;;;5013039;28;20467;-69
2022/07/30 08:10:06;;;;;;;4.07;2.93;;;22.60;98.00;;;;;;5013036;28;20519;-70
2022/07/30 08:12:33;;;;;;;3.53;2.60;;;22.60;98.00;;;;;;5012815;28;20460;-69
2022/07/30 08:15:04;;;;;;;5.20;3.30;;;22.70;98.00;;;;;;5013268;28;20510;-70
2022/07/30 08:17:31;;;;;;;4.33;2.80;;;22.70;97.60;;;;;;5012882;28;20462;-69
2022/07/30 08:20:00;;;;;;;5.83;3.10;;;22.80;98.00;;;;;;5012717;28;20460;-70
2022/07/30 08:22:27;;;;;;;4.90;3.13;;;23.00;97.40;;;;;;5012931;28;20874;-69
2022/07/30 08:24:54;;;;;;;4.97;3.33;;;23.10;96.50;;;;;;5012998;28;20487;-69
2022/07/30 08:27:23;;;;;;;4.20;2.87;;;23.10;95.50;;;;;;5012778;28;20456;-69
2022/07/30 08:29:50;;;;;;;8.43;3.27;;;23.10;97.00;;;;;;5011618;28;20498;-69
2022/07/30 08:32:17;;;;;;;5.80;3.33;;;23.10;94.70;;;;;;5013003;28;20475;-69
2022/07/30 08:34:44;;;;;;;3.73;2.70;;;23.30;94.60;;;;;;5012887;28;21156;-69
2022/07/30 08:37:11;;;;;;;3.90;2.87;;;23.40;94.80;;;;;;5012937;28;20463;-70
2022/07/30 08:39:39;;;;;;;4.30;2.57;;;23.40;93.90;;;;;;5012684;28;20455;-70
2022/07/30 08:42:06;;;;;;;5.57;3.30;;;23.50;93.80;;;;;;5011009;28;20478;-70
2022/07/30 08:44:36;;;;;;;5.10;3.30;;;23.60;94.20;;;;;;5012880;28;20467;-69
2022/07/30 08:47:04;;;;;;;4.97;3.30;;;23.80;94.30;;;;;;5013192;28;20462;-69
2022/07/30 08:49:31;;;;;;;7.60;3.63;;;23.90;93.80;;;;;;5012389;28;20456;-69
2022/07/30 08:51:59;;;;;;;4.17;2.43;;;24.00;91.40;;;;;;5012581;28;20456;-69
2022/07/30 08:54:26;;;;;;;5.17;2.93;;;24.10;92.00;;;;;;5012302;28;20459;-69
2022/07/30 08:56:54;;;;;;;5.40;2.97;;;24.30;92.30;;;;;;5011296;28;20452;-69
2022/07/30 08:59:24;;;;;;;4.70;2.90;;;24.30;90.30;;;;;;5012338;28;20464;-69
2022/07/30 09:01:55;;;;;;;3.90;2.90;;;24.30;90.80;;;;;;5012212;28;20955;-69
2022/07/30 09:04:23;;;;;;;3.63;2.73;;;24.30;90.00;;;;;;5012206;28;20878;-69
2022/07/30 09:06:50;;;;;;;5.87;3.40;;;24.40;89.70;;;;;;5011735;28;20455;-70
2022/07/30 09:09:17;;;;;;;6.10;3.80;;;24.60;89.80;;;;;;5012024;28;20451;-70
2022/07/30 09:11:46;;;;;;;4.93;3.50;;;24.40;87.20;;;;;;5012194;28;20467;-64
2022/07/30 09:14:14;;;;;;;4.57;3.00;;;24.40;89.50;;;;;;5012152;28;20978;-64
2022/07/30 09:16:43;;;;;;;6.33;3.17;;;24.70;91.60;;;;;;5012143;28;21012;-64
2022/07/30 09:19:17;;;;;;;3.20;2.80;;;24.80;91.00;;;;;;5010588;28;20471;-64
2022/07/30 09:22:00;;;;;;;4.00;2.93;;;25.00;91.30;;;;;;5011947;28;20836;-63
2022/07/30 09:24:28;;;;;;;3.67;2.90;;;25.30;88.30;;;;;;5012011;28;20471;-62
2022/07/30 09:26:57;;;;;;;5.43;3.13;;;25.40;88.10;;;;;;5012243;28;20463;-63
2022/07/30 09:29:26;;;;;;;3.87;2.90;;;25.50;88.00;;;;;;5011922;28;21128;-63
2022/07/30 09:31:55;;;;;;;5.90;3.53;;;25.40;89.30;;;;;;5011894;28;20455;-64
2022/07/30 09:34:30;;;;;;;4.10;3.07;;;25.30;89.00;;;;;;5011686;28;21000;-64
2022/07/30 09:36:59;;;;;;;4.70;3.47;;;25.10;88.20;;;;;;5012204;28;20463;-65
2022/07/30 09:39:30;;;;;;;4.20;2.63;;;25.10;89.10;;;;;;5011926;28;20471;-65
2022/07/30 09:41:58;;;;;;;5.40;2.90;;;25.40;88.90;;;;;;5012223;28;20483;-66
2022/07/30 09:44:26;;;;;;;4.73;2.90;;;25.60;88.50;;;;;;5011716;28;20459;-64
2022/07/30 09:46:54;;;;;;;3.60;2.53;;;25.90;87.90;;;;;;5012168;28;20970;-66
2022/07/30 09:49:25;;;;;;;4.13;2.73;;;26.30;85.90;;;;;;5010695;28;20453;-64
2022/07/30 09:51:55;;;;;;;6.93;3.40;;;26.30;85.80;;;;;;5011916;28;20501;-66
2022/07/30 09:54:23;;;;;;;4.80;3.63;;;26.10;83.30;;;;;;5015618;28;20817;-66
2022/07/30 09:57:06;;;;;;;4.97;3.07;;;26.10;84.40;;;;;;5015447;28;20460;-65
2022/07/30 09:59:33;;;;;;;4.40;3.00;;;26.00;84.00;;;;;;5014216;28;20826;-66
2022/07/30 10:02:00;;;;;;;4.53;3.20;;;26.00;85.70;;;;;;5015530;28;20804;-65
2022/07/30 10:04:29;;;;;;;4.37;3.00;;;25.90;83.30;;;;;;5013762;28;20471;-66
2022/07/30 10:06:59;;;;;;;5.13;3.43;;;25.80;85.40;;;;;;5015074;28;20451;-65
2022/07/30 10:09:29;;;;;;;4.43;3.10;;;25.70;83.90;;;;;;5014741;28;20460;-66
2022/07/30 10:11:58;;;;;;;3.93;2.90;;;26.00;85.40;;;;;;5015235;28;20491;-70
2022/07/30 10:14:29;;;;;;;4.00;2.93;;;26.10;84.80;;;;;;4997431;28;20459;-71
2022/07/30 10:16:57;;;;;;;4.47;2.93;;;26.10;84.00;;;;;;5014554;28;20468;-71
2022/07/30 10:19:25;;;;;;;3.30;2.83;;;26.20;84.40;;;;;;5015125;28;20842;-70
2022/07/30 10:21:55;;;;;;;4.07;2.97;;;26.40;84.20;;;;;;5015053;28;20463;-71
2022/07/30 10:24:27;;;;;;;10.60;3.23;;;26.70;82.40;;;;;;5015222;28;20502;-70
2022/07/30 10:26:55;;;;;;;4.10;2.70;;;26.80;81.70;;;;;;5015096;28;20463;-70
2022/07/30 10:29:23;;;;;;;5.70;2.97;;;27.00;82.10;;;;;;5015116;28;20451;-71
2022/07/30 10:31:51;;;;;;;4.00;2.93;;;27.20;77.20;;;;;;5014853;28;20498;-70
2022/07/30 10:34:20;;;;;;;6.17;3.27;;;27.30;80.00;;;;;;5014910;28;20463;-71
2022/07/30 10:36:50;;;;;;;3.87;2.57;;;27.50;78.40;;;;;;5014887;28;20462;-71
2022/07/30 10:39:24;;;;;;;3.90;3.00;;;27.40;81.00;;;;;;5014958;28;20979;-70
2022/07/30 10:42:09;;;;;;;3.90;2.90;;;27.60;78.40;;;;;;5014939;28;20452;-71
2022/07/30 10:45:21;;;;;;;3.77;2.73;;;27.60;77.70;;;;;;5014711;28;20471;-70
2022/07/30 10:47:50;;;;;;;2.90;2.40;;;27.60;76.90;;;;;;5000653;28;20463;-70
2022/07/30 10:50:18;;;;;;;4.03;3.20;;;27.30;78.30;;;;;;5013769;28;20848;-71
2022/07/30 10:52:51;;;;;;;5.37;3.10;;;26.80;78.60;;;;;;5014705;28;20464;-71
2022/07/30 10:55:20;;;;;;;4.07;2.90;;;26.90;79.70;;;;;;5014525;28;20456;-70
2022/07/30 10:58:16;;;;;;;3.70;2.77;;;26.90;81.40;;;;;;5014550;28;20464;-70
2022/07/30 11:01:01;;;;;;;4.20;2.90;;;27.20;79.20;;;;;;5014333;28;20459;-70
2022/07/30 11:03:29;;;;;;;3.77;2.57;;;27.60;80.80;;;;;;5013614;28;20462;-71
2022/07/30 11:06:27;;;;;;;5.70;2.87;;;28.00;78.60;;;;;;5012844;28;20455;-70
2022/07/30 11:08:57;;;;;;;3.37;2.67;;;28.10;77.70;;;;;;5014220;28;20514;-70
2022/07/30 11:11:52;;;;;;;3.73;2.60;;;28.00;75.10;;;;;;5014333;28;20483;-70
2022/07/30 11:14:20;;;;;;;3.37;2.90;;;28.10;75.60;;;;;;4978589;28;20483;-71
2022/07/30 11:17:02;;;;;;;2.87;2.30;;;28.30;74.70;;;;;;5012957;28;20452;-70
2022/07/30 11:19:30;;;;;;;3.47;2.57;;;28.40;76.50;;;;;;5014101;28;20887;-71
2022/07/30 11:22:22;;;;;;;2.90;2.43;;;28.70;75.00;;;;;;5014099;28;20550;-70
2022/07/30 11:24:51;;;;;;;4.93;2.73;;;28.60;73.30;;;;;;5005123;28;20464;-71
2022/07/30 11:27:36;;;;;;;2.93;2.50;;;28.70;74.20;;;;;;5013281;28;20478;-70
2022/07/30 11:30:26;;;;;;;3.23;2.57;;;29.00;75.10;;;;;;5013120;28;20467;-70
2022/07/30 11:32:56;;;;;;;3.27;2.60;;;29.00;71.60;;;;;;5012929;28;20463;-71
2022/07/30 11:35:24;;;;;;;2.87;2.30;;;29.00;70.30;;;;;;5012154;28;20456;-70
2022/07/30 11:38:00;;;;;;;2.90;2.50;;;29.00;73.20;;;;;;5013249;28;20498;-66
2022/07/30 11:40:28;;;;;;;3.10;2.60;;;29.30;72.50;;;;;;5011931;28;20509;-73
2022/07/30 11:43:18;;;;;;;3.80;2.83;;;29.40;73.30;;;;;;5012869;28;20455;-74
2022/07/30 11:45:47;;;;;;;4.13;2.90;;;29.70;73.00;;;;;;5013081;28;20467;-72
2022/07/30 11:48:17;;;;;;;2.67;2.37;;;29.30;73.60;;;;;;5013064;28;20993;-64
2022/07/30 11:50:44;;;;;;;3.00;2.30;;;29.10;72.70;;;;;;5012617;28;20494;-64
2022/07/30 11:53:17;;;;;;;2.73;2.60;;;29.20;73.80;;;;;;5012991;28;20459;-64
2022/07/30 11:55:46;;;;;;;3.50;2.93;;;29.00;72.20;;;;;;5013074;28;20835;-64
2022/07/30 11:58:24;;;;;;;4.83;2.77;;;29.20;72.70;;;;;;5012781;28;20467;-64
2022/07/30 12:00:54;;;;;;;3.50;2.77;;;29.50;72.60;;;;;;5012728;28;20466;-64
2022/07/30 12:03:23;;;;;;;5.00;2.80;;;29.80;73.20;;;;;;5012607;28;20470;-64
2022/07/30 12:05:50;;;;;;;3.63;2.60;;;29.80;70.50;;;;;;5012619;28;20447;-64
2022/07/30 12:08:18;;;;;;;2.90;2.57;;;30.00;72.60;;;;;;5012531;28;20838;-64
2022/07/30 12:10:57;;;;;;;3.43;2.60;;;30.10;71.50;;;;;;5012408;28;20594;-65
2022/07/30 12:13:24;;;;;;;3.73;2.60;;;30.00;71.60;;;;;;5016389;28;20482;-65
2022/07/30 12:18:29;;;;;;;4.47;2.70;;;29.70;69.60;;;;;;5098593;22;20499;-66
2022/07/30 12:20:58;;;;;;;3.20;2.53;;;29.90;72.80;;;;;;5073033;28;20456;-65
2022/07/30 12:23:30;;;;;;;4.03;2.60;;;29.70;70.30;;;;;;5072508;28;20483;-65
2022/07/30 12:25:59;;;;;;;3.90;2.80;;;30.00;71.00;;;;;;5072494;28;20467;-65
2022/07/30 12:28:30;;;;;;;2.80;2.37;;;30.30;68.40;;;;;;5276022;22;20982;-66
2022/07/30 12:33:35;;;;;;;3.13;2.57;;;30.90;67.00;;;;;;5082839;22;20545;-66
2022/07/30 12:36:09;;;;;;;3.20;2.43;;;31.20;67.00;;;;;;5054988;28;20464;-65
2022/07/30 12:38:44;;;;;;;3.10;2.40;;;31.30;66.30;;;;;;5072270;28;20453;-65
2022/07/30 12:41:13;;;;;;;3.10;2.10;;;31.10;66.70;;;;;;5072387;28;20463;-65
2022/07/30 12:43:49;;;;;;;3.80;2.20;;;31.00;65.80;;;;;;5072337;28;20468;-64
2022/07/30 12:46:18;;;;;;;3.20;2.37;;;31.10;68.20;;;;;;5072131;28;21066;-65
2022/07/30 12:49:03;;;;;;;4.40;2.53;;;31.40;65.50;;;;;;5072241;28;20457;-65
2022/07/30 12:51:34;;;;;;;3.10;2.60;;;31.60;65.00;;;;;;5072385;28;20572;-69
2022/07/30 12:54:13;;;;;;;3.30;2.03;;;31.60;64.50;;;;;;5072225;28;20448;-68
2022/07/30 12:56:41;;;;;;;3.30;2.53;;;31.30;66.30;;;;;;5054510;28;20449;-67
2022/07/30 12:59:21;;;;;;;3.00;2.43;;;31.10;66.50;;;;;;5071882;28;20452;-68
2022/07/30 13:01:51;;;;;;;3.40;2.60;;;30.70;66.50;;;;;;5072035;28;20467;-70
2022/07/30 13:04:20;;;;;;;3.70;2.20;;;30.80;65.50;;;;;;5071880;28;20493;-66